Route Details

Aircraft Information
Group: Large Widebodies
Types: B744, MD11
Route Data
Distance: 1562nm
Duration: 3h 39m
Origin METAR: SEQM 160000Z 02006KT 9999 FEW020 13/11 Q1025 NOSIG RMK A3028
Dest. METAR: KMIA 152353Z 00000KT 10SM FEW025 FEW110 BKN200 28/25 A2991 RMK AO2 SLP129 60081 T02780250 10333 20244 56009
Freight Data
(for Aug 16, 2022)
Load Factor:
48%
Manifested Cargo: 115,210lbs
Financial History
Total Freight: 1,570,492lbs
Average Load: 0lbs/flt
Fuel Used: 737,247lbs
Avg. Fuel Used: 0lbs/flt
Fuel Expense: $310,208
Avg. Fuel Expense: $0
Avg. Fuel Cost: $0/lbs
Total Gross Income: $4,558,763
Pilot Pay: $2,041
Total Expenses: $665,331
Total Revenue: $3,573,076
Average Revenue: $0

Capitol Logistics 787




SEQM
Mariscal Sucre International Airport
Quito, EC
KMIA
Miami International Airport
Miami, US